« Back
NWS Peachtree City, Ga » Text Product » AHN Terminal Aerodrome Forecast


Printer-friendly Version
Current Version              Previous Versions:   1  2  3  4  5  6  7  8  9  

Terminal Aerodrome Forecast

314
FTUS42 KFFC 230730 AAA
TAFAHN
TAF AMD
KAHN 230730Z 2308/2406 07007KT 6SM -RA OVC022
     FM230830 07007KT 5SM -RA BR OVC016
     FM231000 07009KT 4SM -RA BR OVC009
     FM231400 08010G18KT 2SM SHRA BR OVC006 PROB30 2318/2322 2SM
      TSRA OVC015CB
     FM240000 11009KT 4SM BR VCSH OVC008=



USA.gov is the U.S. government's official web portal to all federal, state and local government web resources and services.